Time;durP1;ratioP1;P1;durP2;ratioP2;P2;SDS_P1;SDS_P2;PMS_P1;PMS_P2;Temp;Humidity;BMP_temperature;BMP_pressure;BME280_temperature;BME280_humidity;BME280_pressure;Samples;Min_cycle;Max_cycle;Signal;HPM_P1;HPM_P2
2022/11/17 00:00:54;;;;;;;20.98;7.50;;;;;;;8.56;100.00;98624.97;5103272;28;20023;-67
2022/11/17 00:03:19;;;;;;;21.23;7.82;;;;;;;8.59;100.00;98609.13;5101447;28;20029;-67
2022/11/17 00:05:44;;;;;;;20.20;7.57;;;;;;;8.57;100.00;98576.66;5104418;28;20131;-67
2022/11/17 00:08:10;;;;;;;20.50;7.70;;;;;;;8.57;100.00;98587.22;5101209;28;20119;-67
2022/11/17 00:10:35;;;;;;;21.80;8.20;;;;;;;8.59;100.00;98618.78;5103844;28;20024;-67
2022/11/17 00:15:44;;;;;;;23.70;8.60;;;;;;;8.59;100.00;98609.13;5097577;28;20047;-67
2022/11/17 00:23:46;;;;;;;22.42;8.77;;;;;;;8.61;100.00;98591.50;5101459;28;20078;-67
2022/11/17 00:26:13;;;;;;;21.10;8.48;;;;;;;8.67;100.00;98580.81;5096613;28;20081;-67
2022/11/17 00:28:39;;;;;;;21.17;8.05;;;;;;;8.65;100.00;98545.75;5103785;28;20035;-67
2022/11/17 00:34:03;;;;;;;21.60;8.45;;;;;;;8.69;100.00;98550.06;5101989;28;20054;-67
2022/11/17 00:36:29;;;;;;;22.20;8.70;;;;;;;8.68;100.00;98548.31;5106287;28;20043;-67
2022/11/17 00:38:55;;;;;;;24.40;9.00;;;;;;;8.68;100.00;98544.84;5105654;28;20093;-67
2022/11/17 00:41:20;;;;;;;20.90;8.32;;;;;;;8.65;100.00;98548.41;5106900;28;20032;-67
2022/11/17 00:43:45;;;;;;;21.23;8.20;;;;;;;8.66;100.00;98542.19;5102963;28;20032;-67
2022/11/17 00:46:11;;;;;;;20.60;7.70;;;;;;;8.65;100.00;98529.97;5106222;28;20036;-67
2022/11/17 00:48:37;;;;;;;20.23;7.68;;;;;;;8.70;100.00;98538.59;5103291;28;20035;-67
2022/11/17 00:51:03;;;;;;;20.58;7.28;;;;;;;8.67;100.00;98546.56;5106143;28;20089;-66
2022/11/17 00:53:28;;;;;;;20.02;7.35;;;;;;;8.65;100.00;98532.59;5105566;28;20039;-66
2022/11/17 00:55:54;;;;;;;20.35;7.30;;;;;;;8.66;100.00;98521.13;5104997;28;20060;-67
2022/11/17 00:58:19;;;;;;;19.73;6.97;;;;;;;8.67;100.00;98519.38;5106743;28;20036;-67
2022/11/17 01:00:47;;;;;;;18.92;6.70;;;;;;;8.68;100.00;98508.81;5103735;28;20020;-67
2022/11/17 01:03:13;;;;;;;20.20;7.22;;;;;;;8.68;100.00;98514.06;5100220;28;20072;-67
2022/11/17 01:05:38;;;;;;;19.42;7.15;;;;;;;8.69;100.00;98514.94;5106608;28;20436;-67
2022/11/17 01:08:03;;;;;;;20.15;7.13;;;;;;;8.66;100.00;98525.53;5104518;28;20471;-67
2022/11/17 01:10:29;;;;;;;20.85;7.20;;;;;;;8.66;100.00;98517.66;5105522;28;20028;-66
2022/11/17 01:12:54;;;;;;;19.63;7.70;;;;;;;8.65;100.00;98498.34;5105810;28;20027;-65
2022/11/17 01:15:19;;;;;;;19.17;7.57;;;;;;;8.67;100.00;98496.53;5103869;28;20028;-67
2022/11/17 01:17:45;;;;;;;20.60;7.72;;;;;;;8.68;100.00;98478.97;5107135;28;20110;-66
2022/11/17 01:20:10;;;;;;;19.65;6.70;;;;;;;8.68;100.00;98471.94;5103417;27;20121;-67
2022/11/17 01:22:36;;;;;;;18.98;6.97;;;;;;;8.67;100.00;98472.81;5105977;28;20363;-68
2022/11/17 01:25:01;;;;;;;18.80;6.55;;;;;;;8.68;100.00;98490.38;5103519;28;20043;-68
2022/11/17 01:27:27;;;;;;;18.42;6.50;;;;;;;8.71;100.00;98484.16;5104711;28;20394;-68
2022/11/17 01:29:52;;;;;;;18.27;6.53;;;;;;;8.70;100.00;98475.38;5105696;28;20023;-69
2022/11/17 01:32:17;;;;;;;19.08;7.03;;;;;;;8.71;100.00;98477.13;5103674;28;20028;-68
2022/11/17 01:34:43;;;;;;;19.20;7.00;;;;;;;8.73;100.00;98470.03;5106505;28;20081;-68
2022/11/17 01:37:20;;;;;;;18.20;6.10;;;;;;;8.76;100.00;98468.25;5103801;28;20028;-68
2022/11/17 01:39:46;;;;;;;17.23;5.90;;;;;;;8.76;100.00;98465.59;5099580;28;20032;-68
2022/11/17 01:42:18;;;;;;;17.20;5.68;;;;;;;8.78;100.00;98458.50;5098070;28;20031;-67
2022/11/17 01:45:02;;;;;;;16.05;5.30;;;;;;;8.82;100.00;98436.47;5099147;28;20161;-68
2022/11/17 01:47:54;;;;;;;16.15;5.05;;;;;;;8.79;100.00;98424.22;5102538;28;20032;-68
2022/11/17 01:50:27;;;;;;;16.58;4.90;;;;;;;8.86;100.00;98428.41;5100354;28;20052;-68
2022/11/17 01:52:56;;;;;;;16.73;4.78;;;;;;;8.83;100.00;98451.38;5105265;28;20032;-68
2022/11/17 01:55:23;;;;;;;13.88;4.43;;;;;;;8.83;100.00;98459.28;5103806;28;20387;-68
2022/11/17 01:57:57;;;;;;;16.92;4.85;;;;;;;8.85;100.00;98462.72;5105762;28;20023;-67
2022/11/17 02:00:23;;;;;;;15.93;4.72;;;;;;;8.82;100.00;98462.81;5103580;28;20024;-68
2022/11/17 02:02:50;;;;;;;16.88;4.95;;;;;;;8.80;100.00;98443.53;5105918;28;20069;-68
2022/11/17 02:05:29;;;;;;;16.20;5.25;;;;;;;8.81;100.00;98456.69;5102183;28;20024;-68
2022/11/17 02:07:58;;;;;;;16.55;5.32;;;;;;;8.83;100.00;98444.31;5101129;28;20073;-67
2022/11/17 02:10:23;;;;;;;18.25;5.63;;;;;;;8.83;100.00;98448.72;5104851;28;20035;-66
2022/11/17 02:12:49;;;;;;;17.65;5.95;;;;;;;8.82;100.00;98449.63;5102948;28;20035;-67
2022/11/17 02:15:14;;;;;;;17.90;6.00;;;;;;;8.81;100.00;98447.88;5105796;28;20023;-66
2022/11/17 02:17:41;;;;;;;16.98;5.75;;;;;;;8.83;100.00;98459.28;5101456;28;20089;-66
2022/11/17 02:20:29;;;;;;;16.00;5.50;;;;;;;8.83;100.00;98449.59;5105428;28;20039;-67
2022/11/17 02:23:27;;;;;;;17.02;5.07;;;;;;;8.84;100.00;98435.50;5101467;28;20374;-66
2022/11/17 02:26:19;;;;;;;15.65;4.78;;;;;;;8.86;100.00;98420.53;5071093;28;20051;-66
2022/11/17 02:29:10;;;;;;;12.45;4.30;;;;;;;8.86;100.00;98417.03;5098343;28;20024;-66
2022/11/17 02:31:50;;;;;;;15.40;4.30;;;;;;;8.87;100.00;98398.53;5103520;28;20027;-66
2022/11/17 02:34:34;;;;;;;11.13;3.55;;;;;;;8.92;100.00;98387.88;5097021;28;20060;-67
2022/11/17 02:37:10;;;;;;;12.25;3.30;;;;;;;8.94;100.00;98383.44;5102193;28;20378;-66
2022/11/17 02:39:43;;;;;;;12.15;3.40;;;;;;;8.99;100.00;98386.78;5102986;27;20054;-67
2022/11/17 02:45:20;;;;;;;8.60;2.97;;;;;;;8.99;100.00;98383.31;5098152;28;20038;-67
2022/11/17 02:47:49;;;;;;;11.27;2.90;;;;;;;8.98;100.00;98363.13;5098248;28;20103;-66
2022/11/17 02:50:17;;;;;;;7.88;2.90;;;;;;;8.95;100.00;98371.97;5097745;28;20079;-67
2022/11/17 02:52:43;;;;;;;9.15;2.90;;;;;;;8.93;100.00;98367.66;5097686;28;20058;-66
2022/11/17 02:55:09;;;;;;;10.45;3.00;;;;;;;8.93;100.00;98370.28;5104432;28;20102;-66
2022/11/17 02:57:39;;;;;;;7.68;2.70;;;;;;;8.88;100.00;98357.25;5102726;28;20020;-66
2022/11/17 03:00:11;;;;;;;9.35;3.10;;;;;;;8.86;100.00;98357.28;5103849;28;20024;-66
2022/11/17 03:02:58;;;;;;;9.15;2.83;;;;;;;8.84;100.00;98347.69;5102070;28;20076;-66
2022/11/17 03:05:40;;;;;;;8.23;2.80;;;;;;;8.81;100.00;98356.56;5099451;28;20063;-67
2022/11/17 03:08:21;;;;;;;8.55;2.60;;;;;;;8.75;100.00;98345.31;5102291;28;20032;-66
2022/11/17 03:11:02;;;;;;;8.02;2.60;;;;;;;8.76;100.00;98342.66;5096450;28;20081;-67
2022/11/17 03:13:49;;;;;;;7.43;2.45;;;;;;;8.68;100.00;98340.25;5101219;28;20031;-67
2022/11/17 03:16:33;;;;;;;5.05;2.40;;;;;;;8.65;100.00;98324.53;5097394;28;20089;-66
2022/11/17 03:19:23;;;;;;;6.28;2.40;;;;;;;8.55;100.00;98323.91;5100850;28;20032;-66
2022/11/17 03:22:05;;;;;;;6.07;2.50;;;;;;;8.54;100.00;98322.16;5098478;28;20024;-66
2022/11/17 03:24:35;;;;;;;8.52;2.38;;;;;;;8.55;100.00;98329.19;5103011;28;20027;-67
2022/11/17 03:27:14;;;;;;;8.38;2.30;;;;;;;8.57;100.00;98318.59;5103133;28;20028;-66
2022/11/17 03:29:43;;;;;;;5.30;2.20;;;;;;;8.55;100.00;98315.16;5101693;28;20028;-67
2022/11/17 03:32:10;;;;;;;6.43;2.10;;;;;;;8.51;100.00;98303.81;5104338;28;20374;-67
2022/11/17 03:34:41;;;;;;;6.82;1.90;;;;;;;8.54;100.00;98302.88;5101973;28;20032;-67
2022/11/17 03:37:09;;;;;;;6.53;2.10;;;;;;;8.59;100.00;98300.13;5103844;28;20494;-67
2022/11/17 03:39:39;;;;;;;5.40;1.92;;;;;;;8.56;100.00;98298.44;5102304;28;20015;-67
2022/11/17 03:42:14;;;;;;;9.07;1.88;;;;;;;8.62;100.00;98295.66;5103482;28;20031;-66
2022/11/17 03:44:44;;;;;;;5.70;1.90;;;;;;;8.61;100.00;98296.53;5101298;28;20078;-66
2022/11/17 03:47:13;;;;;;;6.68;2.05;;;;;;;8.60;100.00;98289.53;5104514;28;20024;-66
2022/11/17 03:49:40;;;;;;;5.43;2.00;;;;;;;8.71;100.00;98292.75;5101498;28;20502;-67
2022/11/17 03:52:06;;;;;;;4.75;1.90;;;;;;;8.76;100.00;98294.38;5103232;28;20051;-67
2022/11/17 03:54:33;;;;;;;3.45;1.70;;;;;;;8.82;100.00;98286.28;5102699;28;20031;-66
2022/11/17 03:57:08;;;;;;;4.18;2.00;;;;;;;8.87;100.00;98284.41;5101005;28;20043;-67
2022/11/17 03:59:44;;;;;;;4.88;1.80;;;;;;;8.96;100.00;98268.31;5102221;28;20084;-67
2022/11/17 04:02:15;;;;;;;5.53;2.13;;;;;;;8.98;100.00;98268.25;5103774;28;20020;-67
2022/11/17 04:07:24;;;;;;;5.30;1.80;;;;;;;9.10;100.00;98277.56;5103689;28;20038;-67
2022/11/17 04:09:50;;;;;;;4.07;1.80;;;;;;;9.12;100.00;98270.50;5108140;28;20027;-67
2022/11/17 04:17:57;;;;;;;6.07;2.33;;;;;;;9.20;100.00;98265.81;5103574;28;20403;-67
2022/11/17 04:20:22;;;;;;;7.65;2.35;;;;;;;9.19;100.00;98261.50;5107659;28;20031;-66
2022/11/17 04:23:06;;;;;;;7.40;2.45;;;;;;;9.25;100.00;98256.03;5104778;28;20031;-67
2022/11/17 04:28:43;;;;;;;7.03;2.50;;;;;;;9.10;100.00;98277.56;5106979;28;20458;-67
2022/11/17 04:31:08;;;;;;;8.93;2.75;;;;;;;9.04;100.00;98282.13;5105331;28;20040;-66
2022/11/17 04:33:35;;;;;;;8.98;2.90;;;;;;;8.99;100.00;98265.59;5106503;28;20031;-68
2022/11/17 04:36:01;;;;;;;11.85;3.45;;;;;;;8.96;100.00;98260.41;5105900;28;20085;-68
2022/11/17 04:38:27;;;;;;;12.80;3.30;;;;;;;8.94;100.00;98262.25;5105506;28;20032;-68
2022/11/17 04:43:37;;;;;;;10.73;3.50;;;;;;;8.86;100.00;98251.91;5106598;28;20074;-68
2022/11/17 04:46:03;;;;;;;12.80;3.25;;;;;;;8.83;100.00;98233.56;5105332;28;20482;-68
2022/11/17 04:48:28;;;;;;;13.05;3.80;;;;;;;8.84;100.00;98231.78;5105525;28;20115;-68
2022/11/17 04:50:55;;;;;;;13.18;3.60;;;;;;;8.81;100.00;98234.50;5106293;28;20130;-68
2022/11/17 04:53:21;;;;;;;12.40;3.70;;;;;;;8.81;100.00;98216.06;5104365;28;20028;-69
2022/11/17 04:55:46;;;;;;;12.07;3.40;;;;;;;8.78;100.00;98221.44;5107583;28;20024;-69
2022/11/17 04:58:12;;;;;;;16.20;3.90;;;;;;;8.79;100.00;98215.25;5103905;28;20027;-69
2022/11/17 05:00:37;;;;;;;16.73;3.97;;;;;;;8.78;100.00;98224.94;5106623;28;20107;-68
2022/11/17 05:03:03;;;;;;;16.33;3.80;;;;;;;8.77;100.00;98222.38;5105087;28;20032;-68
2022/11/17 05:05:28;;;;;;;16.23;3.83;;;;;;;8.77;100.00;98219.72;5104946;28;20050;-68
2022/11/17 05:07:54;;;;;;;17.05;3.90;;;;;;;8.77;100.00;98227.63;5106548;28;20070;-69
2022/11/17 05:13:21;;;;;;;15.27;3.80;;;;;;;8.79;100.00;98228.44;5105195;28;20042;-69
2022/11/17 05:18:32;;;;;;;17.80;3.70;;;;;;;8.84;100.00;98226.50;5102812;28;20128;-70
2022/11/17 05:21:01;;;;;;;14.82;3.67;;;;;;;8.86;100.00;98224.72;5105610;28;20534;-70
2022/11/17 05:26:10;;;;;;;15.90;3.40;;;;;;;8.86;100.00;98270.34;5103764;28;20051;-72
2022/11/17 05:28:36;;;;;;;20.10;3.80;;;;;;;8.90;100.00;98265.88;5105565;28;20391;-71
2022/11/17 05:31:01;;;;;;;18.20;3.60;;;;;;;8.91;100.00;98262.31;5104820;28;20110;-71
2022/11/17 05:33:26;;;;;;;16.17;3.70;;;;;;;8.90;100.00;98269.34;5104588;28;20101;-71
2022/11/17 05:35:52;;;;;;;20.33;3.95;;;;;;;8.91;100.00;98267.56;5106126;28;20024;-71
2022/11/17 05:38:17;;;;;;;21.67;4.32;;;;;;;8.88;100.00;98267.66;5102921;28;20437;-71
2022/11/17 05:40:42;;;;;;;20.08;4.05;;;;;;;8.88;100.00;98271.19;5106393;28;20428;-69
2022/11/17 05:43:08;;;;;;;18.85;4.07;;;;;;;8.86;100.00;98267.72;5103847;28;20123;-71
2022/11/17 05:45:33;;;;;;;18.77;3.65;;;;;;;8.86;100.00;98278.25;5104940;28;20024;-71
2022/11/17 05:47:58;;;;;;;20.05;3.97;;;;;;;8.85;100.00;98273.91;5104862;28;20036;-71
2022/11/17 05:50:23;;;;;;;21.17;4.00;;;;;;;8.86;100.00;98272.13;5082353;28;20048;-68
2022/11/17 05:52:49;;;;;;;22.25;4.15;;;;;;;8.86;100.00;98274.75;5105454;28;20359;-68
2022/11/17 05:55:14;;;;;;;19.75;4.00;;;;;;;8.86;100.00;98278.25;5103004;28;20546;-67
2022/11/17 05:57:40;;;;;;;20.58;3.92;;;;;;;8.89;100.00;98282.56;5105495;28;20107;-67
2022/11/17 06:00:07;;;;;;;19.67;3.70;;;;;;;8.89;100.00;98286.06;5103865;28;20386;-66
2022/11/17 06:02:58;;;;;;;20.52;3.67;;;;;;;8.86;100.00;98286.16;5104386;28;20024;-67
2022/11/17 06:05:24;;;;;;;19.10;3.72;;;;;;;8.88;100.00;98283.47;5100009;28;20063;-67
2022/11/17 06:07:50;;;;;;;18.67;3.75;;;;;;;8.86;100.00;98287.94;5106128;28;20378;-67
2022/11/17 06:10:16;;;;;;;19.27;4.00;;;;;;;8.86;100.00;98287.94;5102597;28;20052;-67
2022/11/17 06:12:42;;;;;;;20.33;3.75;;;;;;;8.88;100.00;98296.66;5104297;28;20059;-67
2022/11/17 06:15:07;;;;;;;19.58;3.90;;;;;;;8.89;100.00;98291.34;5103499;28;20028;-68
2022/11/17 06:17:58;;;;;;;19.45;3.55;;;;;;;8.89;100.00;98303.66;5104230;28;20043;-67
2022/11/17 06:20:27;;;;;;;20.20;3.55;;;;;;;8.86;100.00;98296.69;5099927;28;20028;-67
2022/11/17 06:22:56;;;;;;;18.35;3.33;;;;;;;8.84;100.00;98308.19;5105720;28;20170;-66
2022/11/17 06:25:21;;;;;;;19.00;3.47;;;;;;;8.80;100.00;98311.84;5102229;28;20064;-66
2022/11/17 06:27:49;;;;;;;16.92;3.40;;;;;;;8.82;100.00;98316.13;5105413;28;20482;-66
2022/11/17 06:30:14;;;;;;;16.85;3.15;;;;;;;8.79;100.00;98315.38;5102488;28;20024;-67
2022/11/17 06:32:42;;;;;;;17.63;3.22;;;;;;;8.73;100.00;98321.66;5103466;28;20032;-67
2022/11/17 06:35:11;;;;;;;19.77;3.22;;;;;;;8.67;100.00;98327.13;5102835;28;20132;-72
2022/11/17 06:37:36;;;;;;;19.70;3.50;;;;;;;8.60;100.00;98323.78;5104411;28;20024;-72
2022/11/17 06:40:02;;;;;;;18.33;2.75;;;;;;;8.59;100.00;98326.44;5091047;28;20020;-74
2022/11/17 06:45:12;;;;;;;15.10;2.75;;;;;;;8.51;100.00;98321.41;5091229;28;20394;-66
2022/11/17 06:47:38;;;;;;;16.27;2.60;;;;;;;8.43;100.00;98331.25;5094223;28;20020;-66
2022/11/17 06:50:03;;;;;;;15.75;2.60;;;;;;;8.40;100.00;98328.69;5097126;28;20024;-67
2022/11/17 06:52:28;;;;;;;16.70;2.60;;;;;;;8.42;100.00;98340.03;5100089;28;20032;-67
2022/11/17 06:54:54;;;;;;;15.55;2.75;;;;;;;8.40;100.00;98333.97;5092101;28;20040;-67
2022/11/17 06:57:19;;;;;;;16.23;2.70;;;;;;;8.39;100.00;98343.63;5094258;28;20455;-67
2022/11/17 06:59:45;;;;;;;17.13;2.70;;;;;;;8.33;100.00;98349.03;5094424;28;20455;-67
2022/11/17 07:02:10;;;;;;;14.20;2.67;;;;;;;8.37;100.00;98356.84;5093755;28;20339;-66
2022/11/17 07:04:36;;;;;;;16.10;2.70;;;;;;;8.32;100.00;98348.19;5096881;28;20035;-67
2022/11/17 07:07:02;;;;;;;15.10;2.75;;;;;;;8.29;100.00;98363.22;5096903;28;20043;-65
2022/11/17 07:09:27;;;;;;;18.88;2.90;;;;;;;8.31;100.00;98353.50;5099848;28;20044;-65
2022/11/17 07:11:52;;;;;;;12.68;2.60;;;;;;;8.28;100.00;98357.06;5096317;28;20075;-66
2022/11/17 07:14:18;;;;;;;15.27;2.78;;;;;;;8.26;100.00;98358.88;5097254;28;20084;-67
2022/11/17 07:16:43;;;;;;;15.57;2.75;;;;;;;8.26;100.00;98358.88;5098072;28;20165;-68
2022/11/17 07:19:10;;;;;;;14.85;2.60;;;;;;;8.24;100.00;98371.19;5097228;28;20084;-66
2022/11/17 07:21:36;;;;;;;14.52;2.80;;;;;;;8.26;100.00;98379.09;5098947;28;20028;-66
2022/11/17 07:24:02;;;;;;;15.15;2.88;;;;;;;8.22;100.00;98369.53;5098365;28;20043;-66
2022/11/17 07:26:27;;;;;;;16.88;2.80;;;;;;;8.20;100.00;98364.31;5097456;28;20040;-67
2022/11/17 07:28:53;;;;;;;15.35;2.85;;;;;;;8.19;100.00;98367.84;5096798;28;20033;-67
2022/11/17 07:31:18;;;;;;;14.73;2.75;;;;;;;8.17;100.00;98386.28;5098358;28;20063;-67
2022/11/17 07:33:43;;;;;;;16.50;2.80;;;;;;;8.14;100.00;98365.31;5096665;28;20390;-66
2022/11/17 07:36:11;;;;;;;15.68;2.90;;;;;;;8.14;100.00;98375.84;5092893;28;20028;-67
2022/11/17 07:38:38;;;;;;;18.05;2.90;;;;;;;8.12;100.00;98387.31;5096812;28;20545;-67
2022/11/17 07:41:04;;;;;;;15.18;2.80;;;;;;;8.12;100.00;98382.03;5101418;28;20173;-66
2022/11/17 07:43:31;;;;;;;14.70;2.80;;;;;;;8.14;100.00;98380.22;5095489;28;20097;-65
2022/11/17 07:45:57;;;;;;;15.70;2.97;;;;;;;8.15;100.00;98389.84;5101314;28;20028;-68
2022/11/17 07:48:22;;;;;;;12.10;2.72;;;;;;;8.11;100.00;98391.72;5097024;28;20028;-68
2022/11/17 07:50:47;;;;;;;16.08;2.90;;;;;;;8.10;100.00;98403.13;5103001;28;20048;-66
2022/11/17 07:53:14;;;;;;;13.05;2.50;;;;;;;8.11;100.00;98398.72;5105008;28;20046;-65
2022/11/17 07:55:39;;;;;;;14.38;2.83;;;;;;;8.10;100.00;98407.53;5104360;28;20051;-66
2022/11/17 07:58:04;;;;;;;14.73;2.70;;;;;;;8.12;100.00;98397.84;5098975;28;20059;-66
2022/11/17 08:00:32;;;;;;;11.70;2.50;;;;;;;8.14;100.00;98406.53;5098863;28;20052;-66
2022/11/17 08:03:02;;;;;;;13.43;2.95;;;;;;;8.16;100.00;98412.66;5103595;28;20019;-66
2022/11/17 08:05:29;;;;;;;14.57;2.75;;;;;;;8.12;100.00;98411.00;5101392;28;20054;-67
2022/11/17 08:07:56;;;;;;;15.75;2.50;;;;;;;8.15;100.00;98414.41;5088826;28;20367;-67
2022/11/17 08:10:21;;;;;;;11.93;2.70;;;;;;;8.10;100.00;98425.97;5097944;28;20035;-67
2022/11/17 08:12:50;;;;;;;11.13;2.50;;;;;;;8.10;100.00;98433.88;5078436;28;20024;-67
2022/11/17 08:15:16;;;;;;;8.00;2.40;;;;;;;8.09;100.00;98429.50;5094795;28;20040;-66
2022/11/17 08:17:41;;;;;;;15.45;2.60;;;;;;;8.10;100.00;98431.22;5097424;28;20642;-67
2022/11/17 08:20:07;;;;;;;11.73;2.60;;;;;;;8.09;100.00;98440.88;5096724;28;20036;-66
2022/11/17 08:22:32;;;;;;;13.70;2.70;;;;;;;8.08;100.00;98444.44;5101045;28;20550;-67
2022/11/17 08:24:58;;;;;;;12.80;2.88;;;;;;;8.10;100.00;98437.34;5095032;28;20379;-65
2022/11/17 08:27:24;;;;;;;11.30;2.50;;;;;;;8.05;100.00;98443.63;5099551;28;20115;-67
2022/11/17 08:29:49;;;;;;;11.60;2.70;;;;;;;8.04;100.00;98445.41;5094835;28;20039;-72
2022/11/17 08:32:15;;;;;;;13.65;2.60;;;;;;;8.04;100.00;98442.75;5098978;28;20034;-73
2022/11/17 08:34:40;;;;;;;12.13;2.80;;;;;;;8.00;100.00;98447.22;5102359;28;20020;-73
2022/11/17 08:37:05;;;;;;;10.32;2.55;;;;;;;8.01;100.00;98445.47;5099240;28;20028;-75
2022/11/17 08:39:30;;;;;;;12.75;2.80;;;;;;;7.97;100.00;98449.06;5097502;28;20090;-72
2022/11/17 08:41:56;;;;;;;12.90;2.60;;;;;;;7.95;100.00;98449.09;5102618;28;20051;-69
2022/11/17 08:44:21;;;;;;;15.20;2.67;;;;;;;7.98;100.00;98449.03;5097717;28;20031;-68
2022/11/17 08:46:47;;;;;;;16.50;2.80;;;;;;;7.96;100.00;98460.47;5104353;28;20169;-68
2022/11/17 08:49:13;;;;;;;12.52;2.60;;;;;;;7.93;100.00;98461.41;5100918;28;20023;-70
2022/11/17 08:51:38;;;;;;;13.40;2.80;;;;;;;7.89;100.00;98457.09;5100078;28;20055;-69
2022/11/17 08:54:04;;;;;;;13.77;2.88;;;;;;;7.88;100.00;98468.56;5100383;28;20031;-69
2022/11/17 08:56:29;;;;;;;17.00;2.78;;;;;;;7.90;100.00;98460.63;5096025;28;20379;-74
2022/11/17 08:58:55;;;;;;;13.45;2.75;;;;;;;7.89;100.00;98469.41;5100889;28;20059;-75
2022/11/17 09:01:20;;;;;;;13.45;2.75;;;;;;;7.88;100.00;98462.41;5102945;28;20129;-75
2022/11/17 09:03:46;;;;;;;13.85;2.60;;;;;;;7.88;100.00;98471.19;5101634;28;20078;-74
2022/11/17 09:06:14;;;;;;;11.70;2.60;;;;;;;7.91;100.00;98473.75;5098425;27;20097;-75
2022/11/17 09:08:39;;;;;;;13.93;2.67;;;;;;;7.95;100.00;98478.03;5106699;28;20019;-75
2022/11/17 09:11:07;;;;;;;14.25;2.70;;;;;;;7.96;100.00;98481.53;5090379;28;20035;-75
2022/11/17 09:13:33;;;;;;;12.40;2.72;;;;;;;7.97;100.00;98481.50;5104627;28;20477;-76
2022/11/17 09:16:07;;;;;;;11.50;2.90;;;;;;;7.97;100.00;98494.66;5105256;28;20088;-73
2022/11/17 09:18:36;;;;;;;12.02;2.70;;;;;;;7.95;100.00;98485.06;5102859;28;20378;-75
2022/11/17 09:21:08;;;;;;;17.20;2.70;;;;;;;7.94;100.00;98492.09;5106064;28;20474;-74
2022/11/17 09:23:33;;;;;;;14.38;2.70;;;;;;;7.90;100.00;98487.78;5104459;28;20429;-74
2022/11/17 09:26:03;;;;;;;14.45;2.75;;;;;;;7.96;100.00;98505.22;5104996;28;20032;-75
2022/11/17 09:28:29;;;;;;;13.18;2.83;;;;;;;7.92;100.00;98504.44;5103543;28;20035;-74
2022/11/17 09:30:54;;;;;;;14.13;2.90;;;;;;;7.91;100.00;98494.78;5106926;28;20023;-74
2022/11/17 09:33:19;;;;;;;14.05;3.00;;;;;;;7.96;100.00;98482.38;5103343;28;20032;-75
2022/11/17 09:35:45;;;;;;;11.45;2.90;;;;;;;7.99;100.00;98497.25;5105840;28;20080;-75
2022/11/17 09:38:10;;;;;;;14.82;3.10;;;;;;;8.02;100.00;98498.06;5104694;28;20051;-75
2022/11/17 09:40:39;;;;;;;12.20;2.97;;;;;;;8.09;100.00;98514.56;5103045;28;20035;-74
2022/11/17 09:43:16;;;;;;;15.95;3.00;;;;;;;8.15;100.00;98509.13;5105578;28;20020;-75
2022/11/17 09:45:45;;;;;;;13.98;3.00;;;;;;;8.21;100.00;98521.28;5105207;28;20028;-75
2022/11/17 09:48:19;;;;;;;14.43;2.90;;;;;;;8.25;100.00;98516.84;5104698;28;20031;-75
2022/11/17 09:50:45;;;;;;;13.65;2.90;;;;;;;8.31;100.00;98524.59;5105156;28;20047;-75
2022/11/17 09:53:27;;;;;;;13.43;2.88;;;;;;;8.28;100.00;98522.88;5104171;28;20130;-75
2022/11/17 09:56:00;;;;;;;14.23;2.92;;;;;;;8.27;100.00;98533.47;5098696;28;20020;-75
2022/11/17 09:58:57;;;;;;;14.88;2.80;;;;;;;8.27;100.00;98529.06;5099191;28;20382;-75
2022/11/17 10:01:27;;;;;;;12.52;2.78;;;;;;;8.33;100.00;98517.50;5090794;28;20053;-71
2022/11/17 10:03:53;;;;;;;12.60;2.72;;;;;;;8.28;100.00;98538.69;5095387;28;20119;-68
2022/11/17 10:06:22;;;;;;;10.63;2.60;;;;;;;8.26;100.00;98532.59;5090561;28;20039;-75
2022/11/17 10:09:18;;;;;;;12.25;2.50;;;;;;;8.38;100.00;98553.34;5096087;28;20111;-73
2022/11/17 10:11:45;;;;;;;11.73;2.60;;;;;;;8.33;100.00;98544.72;5091858;28;20359;-76
2022/11/17 10:14:14;;;;;;;15.80;2.63;;;;;;;8.39;100.00;98548.97;5096538;28;20466;-73
2022/11/17 10:16:43;;;;;;;12.10;2.65;;;;;;;8.50;100.00;98551.38;5098145;28;20133;-73
2022/11/17 10:19:23;;;;;;;9.27;2.30;;;;;;;8.54;100.00;98580.22;5097715;28;20500;-74
2022/11/17 10:22:00;;;;;;;11.15;2.60;;;;;;;8.66;100.00;98571.19;5098978;28;20112;-74
2022/11/17 10:24:33;;;;;;;14.00;2.60;;;;;;;8.60;100.00;98562.56;5097511;28;20024;-72
2022/11/17 10:26:59;;;;;;;;;;;;;;;8.78;100.00;98555.97;5100303;28;20024;-74
2022/11/17 10:29:24;;;;;;;13.52;2.70;;;;;;;8.69;100.00;98565.88;5095089;27;19927;-69
2022/11/17 10:31:49;;;;;;;14.70;2.85;;;;;;;8.78;100.00;98566.53;5098253;28;20059;-73
2022/11/17 10:34:30;;;;;;;14.25;2.50;;;;;;;8.88;100.00;98578.56;5099860;28;20031;-72
2022/11/17 10:37:02;;;;;;;10.75;2.50;;;;;;;8.89;100.00;98572.41;5097835;28;20027;-74
2022/11/17 10:39:40;;;;;;;12.93;2.60;;;;;;;9.08;100.00;98586.81;5094184;28;20082;-73
2022/11/17 10:42:26;;;;;;;10.93;2.42;;;;;;;9.02;100.00;98592.25;5097214;28;20375;-74
2022/11/17 10:44:56;;;;;;;9.23;2.30;;;;;;;8.99;100.00;98594.97;5094864;28;20032;-74
2022/11/17 10:47:37;;;;;;;8.77;2.35;;;;;;;8.96;100.00;98589.78;5096422;28;20050;-74
2022/11/17 10:50:31;;;;;;;11.45;2.50;;;;;;;8.90;100.00;98603.13;5099084;28;20486;-74
2022/11/17 10:53:24;;;;;;;10.10;2.40;;;;;;;8.92;100.00;98589.91;5073714;28;20482;-73
2022/11/17 10:55:56;;;;;;;12.07;2.40;;;;;;;8.84;100.00;98598.88;5092411;28;20039;-73
2022/11/17 10:58:30;;;;;;;11.93;2.30;;;;;;;8.80;100.00;98602.47;5101299;28;20073;-73
2022/11/17 11:00:58;;;;;;;13.15;2.45;;;;;;;8.78;100.00;98588.47;5099875;28;20382;-73
2022/11/17 11:03:30;;;;;;;11.18;2.50;;;;;;;8.83;100.00;98612.06;5103295;28;20072;-74
2022/11/17 11:06:01;;;;;;;11.02;2.63;;;;;;;8.79;100.00;98611.25;5103279;28;20062;-73
2022/11/17 11:08:37;;;;;;;11.73;2.40;;;;;;;8.75;100.00;98603.47;5102716;28;20367;-73
2022/11/17 11:11:08;;;;;;;14.65;2.53;;;;;;;8.70;100.00;98601.81;5104228;28;20019;-75
2022/11/17 11:13:44;;;;;;;12.10;2.58;;;;;;;8.66;100.00;98600.16;5101893;28;20023;-75
2022/11/17 11:16:10;;;;;;;12.43;2.60;;;;;;;8.65;100.00;98614.25;5096663;28;20586;-73
2022/11/17 11:18:37;;;;;;;12.65;2.83;;;;;;;8.66;100.00;98609.81;5104700;28;20494;-76
2022/11/17 11:21:33;;;;;;;7.63;2.60;;;;;;;8.61;100.00;98617.00;5102002;28;20082;-68
2022/11/17 11:24:33;;;;;;;14.15;2.80;;;;;;;8.59;100.00;98606.50;5102714;28;20064;-67
2022/11/17 11:27:08;;;;;;;14.45;2.88;;;;;;;8.58;100.00;98614.41;5102343;28;20035;-68
2022/11/17 11:29:58;;;;;;;11.73;2.80;;;;;;;8.60;100.00;98613.47;5101453;28;20035;-68
2022/11/17 11:32:40;;;;;;;12.38;2.80;;;;;;;8.62;100.00;98618.69;5101025;28;20017;-68
2022/11/17 11:35:42;;;;;;;11.88;2.72;;;;;;;8.56;100.00;98627.59;5101468;28;20036;-68
2022/11/17 11:38:17;;;;;;;12.77;2.83;;;;;;;8.57;100.00;98626.72;5097201;28;20052;-68
2022/11/17 11:40:57;;;;;;;11.35;2.88;;;;;;;8.56;100.00;98617.06;5097968;28;20402;-68
2022/11/17 11:43:38;;;;;;;11.38;2.70;;;;;;;8.59;100.00;98629.31;5102918;28;20462;-68
2022/11/17 11:46:03;;;;;;;13.27;2.80;;;;;;;8.58;100.00;98628.44;5103898;28;20071;-68
2022/11/17 11:48:32;;;;;;;12.32;3.10;;;;;;;8.57;100.00;98639.03;5102230;28;20382;-68
2022/11/17 11:51:09;;;;;;;12.88;3.20;;;;;;;8.58;100.00;98628.44;5102985;28;20072;-67
2022/11/17 11:53:51;;;;;;;15.35;3.25;;;;;;;8.60;100.00;98638.94;5099899;28;20031;-67
2022/11/17 11:56:24;;;;;;;10.95;2.70;;;;;;;8.57;100.00;98668.00;5098910;28;20036;-67
2022/11/17 11:58:58;;;;;;;12.30;2.72;;;;;;;8.59;100.00;98651.25;5101971;28;20092;-68
2022/11/17 12:01:25;;;;;;;10.60;2.78;;;;;;;8.59;100.00;98646.00;5102647;28;20024;-67
2022/11/17 12:04:08;;;;;;;12.27;2.90;;;;;;;8.62;100.00;98645.91;5103245;28;20024;-67
2022/11/17 12:06:52;;;;;;;7.57;2.53;;;;;;;8.53;100.00;98651.38;5103741;28;20028;-67
2022/11/17 12:09:26;;;;;;;10.60;2.50;;;;;;;8.56;100.00;98664.47;5099220;28;20230;-67
2022/11/17 12:12:02;;;;;;;10.00;2.50;;;;;;;8.55;100.00;98654.84;5103115;28;20028;-68
2022/11/17 12:14:32;;;;;;;11.88;2.55;;;;;;;8.61;100.00;98653.84;5102838;28;20110;-68
2022/11/17 12:17:24;;;;;;;9.75;2.50;;;;;;;8.64;100.00;98659.91;5102137;28;20020;-68
2022/11/17 12:19:56;;;;;;;11.77;2.40;;;;;;;8.65;100.00;98656.38;5099520;28;20032;-68